Time;durP1;ratioP1;P1;durP2;ratioP2;P2;SDS_P1;SDS_P2;PMS_P1;PMS_P2;Temp;Humidity;BMP_temperature;BMP_pressure;BME280_temperature;BME280_humidity;BME280_pressure;Samples;Min_cycle;Max_cycle;Signal;HPM_P1;HPM_P2
2022/12/13 00:01:26;;;;;;;37.30;20.13;;;;;;;0.36;54.48;101142.44;5092919;28;20090;-71
2022/12/13 00:03:57;;;;;;;31.52;18.98;;;;;;;0.36;54.66;101144.22;5093208;28;20040;-71
2022/12/13 00:06:25;;;;;;;30.75;18.88;;;;;;;0.36;54.58;101138.94;5094365;28;20042;-72
2022/12/13 00:08:52;;;;;;;32.50;18.63;;;;;;;0.34;54.57;101144.25;5094544;28;20044;-71
2022/12/13 00:11:19;;;;;;;31.13;18.33;;;;;;;0.36;54.65;101145.09;5093810;28;20497;-71
2022/12/13 00:13:46;;;;;;;33.03;19.20;;;;;;;0.35;54.49;101139.84;5077384;28;20094;-72
2022/12/13 00:16:17;;;;;;;34.85;18.08;;;;;;;0.34;54.58;101138.97;5072653;28;20036;-71
2022/12/13 00:18:48;;;;;;;28.90;17.85;;;;;;;0.33;54.60;101134.59;5072632;28;20482;-71
2022/12/13 00:21:17;;;;;;;29.92;18.27;;;;;;;0.31;54.62;101129.34;5073747;28;20059;-70
2022/12/13 00:23:44;;;;;;;33.70;19.02;;;;;;;0.29;54.50;101128.53;5088952;28;20040;-72
2022/12/13 00:26:18;;;;;;;33.70;18.02;;;;;;;0.27;54.54;101130.34;5094198;28;20440;-71
2022/12/13 00:28:48;;;;;;;26.65;16.45;;;;;;;0.25;54.43;101136.56;5093844;28;20101;-71
2022/12/13 00:31:18;;;;;;;30.52;17.70;;;;;;;0.23;54.62;101141.88;5093768;28;20050;-71
2022/12/13 00:34:05;;;;;;;30.98;18.08;;;;;;;0.21;54.64;101138.41;5089140;28;20153;-71
2022/12/13 00:36:32;;;;;;;34.40;17.90;;;;;;;0.19;54.49;101136.72;5092542;28;20119;-71
2022/12/13 00:39:01;;;;;;;27.45;17.08;;;;;;;0.19;54.55;101139.34;5093915;28;20040;-71
2022/12/13 00:41:34;;;;;;;29.70;17.55;;;;;;;0.17;54.55;101135.88;5093785;28;20058;-71
2022/12/13 00:44:01;;;;;;;26.30;16.05;;;;;;;0.16;54.71;101131.50;5099125;28;20048;-71
2022/12/13 00:46:29;;;;;;;36.05;18.25;;;;;;;0.15;54.57;101127.13;5093674;28;20553;-72
2022/12/13 00:48:58;;;;;;;35.28;18.42;;;;;;;0.14;54.66;101133.31;5093707;28;20074;-71
2022/12/13 00:51:26;;;;;;;37.60;18.15;;;;;;;0.13;54.63;101132.44;5093666;28;20122;-71
2022/12/13 00:53:53;;;;;;;34.03;18.13;;;;;;;0.11;54.74;101133.38;5078959;28;20044;-71
2022/12/13 00:56:24;;;;;;;33.55;18.25;;;;;;;0.08;54.77;101134.31;5089117;28;20156;-71
2022/12/13 00:58:52;;;;;;;29.75;17.58;;;;;;;0.04;54.60;101127.38;5073695;28;20056;-72
2022/12/13 01:01:23;;;;;;;32.88;19.20;;;;;;;0.02;54.83;101123.03;5073103;28;20037;-72
2022/12/13 01:03:52;;;;;;;32.70;18.08;;;;;;;0.01;54.76;101126.59;5087307;28;20044;-72
2022/12/13 01:06:24;;;;;;;30.13;17.48;;;;;;;0.02;54.85;101117.75;5093688;28;20040;-71
2022/12/13 01:08:51;;;;;;;31.83;17.75;;;;;;;0.03;54.89;101120.34;5093926;28;20452;-71
2022/12/13 01:11:18;;;;;;;33.33;18.63;;;;;;;0.03;54.84;101125.63;5093803;28;20054;-70
2022/12/13 01:13:44;;;;;;;33.58;18.58;;;;;;;0.03;54.79;101127.41;5092404;28;20498;-71
2022/12/13 01:16:11;;;;;;;33.50;19.05;;;;;;;0.01;54.92;101129.22;5093328;28;20048;-71
2022/12/13 01:18:39;;;;;;;37.65;18.92;;;;;;;-0.01;54.94;101129.22;5093461;28;20063;-71
2022/12/13 01:21:09;;;;;;;31.70;18.45;;;;;;;-0.04;54.96;101129.28;5093377;28;20040;-71
2022/12/13 01:23:36;;;;;;;33.25;17.88;;;;;;;-0.06;54.84;101134.59;5093216;28;20551;-70
2022/12/13 01:26:05;;;;;;;31.83;18.23;;;;;;;-0.07;54.91;101129.38;5097267;28;20032;-72
2022/12/13 01:28:32;;;;;;;32.15;17.17;;;;;;;-0.08;54.75;101136.41;5097177;28;20036;-71
2022/12/13 01:31:05;;;;;;;30.23;17.67;;;;;;;-0.08;54.80;101132.91;5097526;28;20032;-72
2022/12/13 01:33:33;;;;;;;31.50;17.40;;;;;;;-0.10;55.03;101132.94;5080846;28;20083;-71
2022/12/13 01:36:02;;;;;;;31.85;17.20;;;;;;;-0.12;55.06;101125.97;5092500;28;20098;-71
2022/12/13 01:38:28;;;;;;;32.92;19.58;;;;;;;-0.13;55.04;101130.38;5076833;28;20041;-71
2022/12/13 01:40:58;;;;;;;31.92;18.27;;;;;;;-0.14;54.99;101123.34;5082107;28;20028;-71
2022/12/13 01:43:28;;;;;;;32.35;18.13;;;;;;;-0.14;55.13;101125.13;5096759;28;20036;-71
2022/12/13 01:45:55;;;;;;;30.80;16.48;;;;;;;-0.14;55.14;101127.78;5095929;28;20036;-71
2022/12/13 01:48:27;;;;;;;29.00;17.63;;;;;;;-0.12;55.05;101131.25;5096937;28;20048;-71
2022/12/13 01:51:01;;;;;;;27.33;16.88;;;;;;;-0.12;55.21;101128.59;5095087;28;20039;-71
2022/12/13 01:53:32;;;;;;;29.98;17.88;;;;;;;-0.10;55.17;101129.44;5096798;28;20070;-72
2022/12/13 01:56:11;;;;;;;30.48;16.92;;;;;;;-0.10;55.05;101124.16;5096743;28;20486;-72
2022/12/13 01:58:39;;;;;;;31.77;17.23;;;;;;;-0.09;55.25;101121.47;5096965;28;20544;-71
2022/12/13 02:01:05;;;;;;;28.80;17.60;;;;;;;-0.09;55.04;101129.41;5095418;28;20436;-71
2022/12/13 02:03:33;;;;;;;34.85;18.25;;;;;;;-0.11;54.96;101125.94;5096374;28;20413;-71
2022/12/13 02:06:06;;;;;;;29.45;18.70;;;;;;;-0.12;54.88;101125.97;5096877;28;20074;-72
2022/12/13 02:08:33;;;;;;;28.88;17.73;;;;;;;-0.16;54.83;101125.16;5096637;28;20044;-71
2022/12/13 02:11:02;;;;;;;32.08;17.50;;;;;;;-0.16;54.98;101130.44;5095793;28;20160;-71
2022/12/13 02:13:29;;;;;;;30.35;17.13;;;;;;;-0.16;55.09;101129.56;5096679;28;20099;-70
2022/12/13 02:16:23;;;;;;;32.28;18.33;;;;;;;-0.16;54.94;101129.56;5095309;28;20113;-71
2022/12/13 02:19:26;;;;;;;33.22;18.70;;;;;;;-0.16;55.08;101125.16;5096409;28;20039;-72
2022/12/13 02:22:14;;;;;;;34.33;17.25;;;;;;;-0.16;54.93;101124.28;5095667;28;20413;-71
2022/12/13 02:25:04;;;;;;;29.95;17.65;;;;;;;-0.18;55.02;101126.09;5096205;28;20067;-70
2022/12/13 02:27:39;;;;;;;31.73;16.85;;;;;;;-0.18;55.07;101137.53;5067583;28;20110;-72
2022/12/13 02:30:11;;;;;;;31.58;16.67;;;;;;;-0.20;55.07;101134.06;5096372;28;20040;-72
2022/12/13 02:32:56;;;;;;;35.08;17.20;;;;;;;-0.20;55.12;101131.41;5091624;28;20063;-72
2022/12/13 02:35:56;;;;;;;32.53;16.80;;;;;;;-0.20;55.18;101126.13;5074208;28;20401;-71
2022/12/13 02:38:43;;;;;;;27.85;15.95;;;;;;;-0.18;55.20;101121.69;5075783;28;20040;-71
2022/12/13 02:41:40;;;;;;;36.50;18.58;;;;;;;-0.14;55.26;101117.22;5078349;28;20122;-71
2022/12/13 02:44:23;;;;;;;31.35;17.33;;;;;;;-0.13;55.30;101118.94;5095091;28;20176;-71
2022/12/13 02:47:05;;;;;;;30.15;17.15;;;;;;;-0.11;55.25;101112.72;5111744;28;20050;-72
2022/12/13 02:49:45;;;;;;;30.35;16.92;;;;;;;-0.05;54.89;101112.59;5095142;28;20066;-71
2022/12/13 02:52:16;;;;;;;31.20;17.13;;;;;;;-0.01;55.12;101116.03;5095853;28;20044;-71
2022/12/13 02:54:48;;;;;;;28.40;17.08;;;;;;;0.04;55.25;101108.03;5095820;28;20435;-71
2022/12/13 02:57:37;;;;;;;34.28;18.25;;;;;;;0.07;55.07;101115.88;5095560;28;20036;-72
2022/12/13 03:00:06;;;;;;;28.35;17.02;;;;;;;0.09;55.01;101107.00;5094094;28;20050;-71
2022/12/13 03:02:39;;;;;;;32.72;17.33;;;;;;;0.10;55.13;101116.66;5095203;28;20122;-72
2022/12/13 03:08:24;;;;;;;31.40;17.88;;;;;;;0.12;54.80;101109.56;5095580;28;20040;-71
2022/12/13 03:11:02;;;;;;;31.08;16.90;;;;;;;0.12;54.71;101103.44;5094475;28;20051;-71
2022/12/13 03:13:43;;;;;;;31.60;18.00;;;;;;;0.12;54.88;101099.00;5094940;28;20047;-72
2022/12/13 03:16:35;;;;;;;32.47;17.77;;;;;;;0.13;54.73;101099.88;5095339;28;20040;-72
2022/12/13 03:19:05;;;;;;;33.80;18.08;;;;;;;0.12;54.83;101098.16;5094188;28;20043;-71
2022/12/13 03:21:48;;;;;;;32.72;18.60;;;;;;;0.10;54.85;101092.91;5095189;28;20044;-72
2022/12/13 03:24:17;;;;;;;31.30;17.85;;;;;;;0.11;54.75;101096.41;5094969;28;20036;-72
2022/12/13 03:26:44;;;;;;;35.63;18.75;;;;;;;0.11;54.81;101099.06;5095338;28;20036;-71
2022/12/13 03:29:11;;;;;;;29.88;17.42;;;;;;;0.10;54.95;101092.03;5086973;28;20043;-72
2022/12/13 03:31:38;;;;;;;32.97;19.55;;;;;;;0.11;54.79;101099.06;5074818;28;20532;-72
2022/12/13 03:34:05;;;;;;;29.50;18.17;;;;;;;0.12;54.92;101100.78;5074988;28;20040;-72
2022/12/13 03:36:31;;;;;;;32.85;18.13;;;;;;;0.10;54.76;101092.91;5074529;28;20037;-71
2022/12/13 03:38:58;;;;;;;31.15;17.27;;;;;;;0.10;54.97;101099.97;5082894;28;20040;-71
2022/12/13 03:41:30;;;;;;;34.05;18.15;;;;;;;0.09;54.75;101098.22;5095019;28;20401;-71
2022/12/13 03:43:58;;;;;;;31.70;19.05;;;;;;;0.07;54.84;101105.31;5093546;28;20036;-72
2022/12/13 03:46:25;;;;;;;32.55;17.73;;;;;;;0.05;54.65;101101.84;5092507;28;20075;-72
2022/12/13 03:48:52;;;;;;;36.90;17.50;;;;;;;0.04;54.84;101102.75;5094724;28;20040;-72
2022/12/13 03:51:18;;;;;;;30.83;18.40;;;;;;;0.04;54.72;101100.97;5094799;28;20036;-71
2022/12/13 03:53:45;;;;;;;30.73;17.63;;;;;;;0.04;54.67;101093.06;5094432;28;20447;-71
2022/12/13 03:56:11;;;;;;;31.52;18.27;;;;;;;0.04;54.96;101095.69;5094507;28;20050;-72
2022/12/13 03:58:40;;;;;;;32.58;17.60;;;;;;;0.06;54.90;101096.53;5092606;28;20032;-72
2022/12/13 04:01:10;;;;;;;34.60;19.52;;;;;;;0.07;54.68;101098.25;5094764;28;20040;-72
2022/12/13 04:03:38;;;;;;;34.92;18.95;;;;;;;0.09;54.87;101098.22;5094081;28;20036;-71
2022/12/13 04:06:06;;;;;;;33.97;17.92;;;;;;;0.09;54.89;101100.88;5094183;28;20382;-72
2022/12/13 04:08:33;;;;;;;32.50;17.42;;;;;;;0.07;54.80;101100.03;5093422;28;20048;-72
2022/12/13 04:13:31;;;;;;;32.22;18.75;;;;;;;0.04;54.72;101103.63;5094261;28;20119;-72
2022/12/13 04:13:47;;;;;;;33.67;19.38;;;;;;;0.03;54.90;101101.88;5093972;28;20035;-72
2022/12/13 04:16:13;;;;;;;30.02;17.13;;;;;;;0.01;54.67;101102.81;5094101;28;20040;-72
2022/12/13 04:18:40;;;;;;;31.30;18.02;;;;;;;-0.02;54.56;101099.31;5093521;28;20040;-73
2022/12/13 04:21:07;;;;;;;30.13;18.60;;;;;;;-0.06;54.71;101097.66;5079705;28;20036;-72
2022/12/13 04:23:33;;;;;;;32.28;17.73;;;;;;;-0.07;54.65;101092.41;5073710;28;20082;-72
2022/12/13 04:26:01;;;;;;;27.40;17.58;;;;;;;-0.09;54.81;101084.53;5073582;28;20037;-72
2022/12/13 04:28:27;;;;;;;34.40;18.15;;;;;;;-0.09;54.90;101086.28;5089635;28;20067;-73
2022/12/13 04:30:54;;;;;;;31.10;18.67;;;;;;;-0.09;54.85;101081.00;5093834;28;20032;-72
2022/12/13 04:33:22;;;;;;;31.73;17.70;;;;;;;-0.08;54.67;101075.69;5093654;28;20040;-72
2022/12/13 04:35:49;;;;;;;28.20;16.83;;;;;;;-0.08;54.72;101070.41;5094041;28;20040;-72
2022/12/13 04:38:16;;;;;;;30.63;17.92;;;;;;;-0.08;54.66;101077.47;5078553;28;20037;-72
2022/12/13 04:40:43;;;;;;;33.47;18.27;;;;;;;-0.10;54.89;101084.56;5073546;28;20441;-72
2022/12/13 04:43:09;;;;;;;33.67;18.13;;;;;;;-0.13;54.89;101072.31;5073274;28;20102;-72
2022/12/13 04:45:36;;;;;;;34.20;18.17;;;;;;;-0.14;54.85;101086.41;5079305;28;20494;-71
2022/12/13 04:48:04;;;;;;;39.08;18.98;;;;;;;-0.16;54.71;101079.41;5093655;28;20043;-72
2022/12/13 04:50:31;;;;;;;35.97;19.15;;;;;;;-0.18;54.70;101075.94;5093831;28;20067;-72
2022/12/13 04:52:57;;;;;;;34.05;17.50;;;;;;;-0.21;54.79;101074.25;5093437;28;20062;-71
2022/12/13 04:55:24;;;;;;;29.05;18.05;;;;;;;-0.26;54.64;101084.03;5092736;28;20389;-72
2022/12/13 04:57:51;;;;;;;31.92;17.90;;;;;;;-0.32;54.78;101076.28;5093519;28;20036;-71
2022/12/13 05:00:17;;;;;;;33.42;16.58;;;;;;;-0.33;54.74;101079.81;5093437;28;20032;-72
2022/12/13 05:02:44;;;;;;;29.95;17.65;;;;;;;-0.33;54.71;101079.81;5093261;28;20409;-71
2022/12/13 05:05:12;;;;;;;31.75;17.63;;;;;;;-0.34;54.89;101080.72;5076922;28;20191;-71
2022/12/13 05:07:39;;;;;;;29.23;17.33;;;;;;;-0.34;54.85;101078.06;5073218;28;20402;-71
2022/12/13 05:10:09;;;;;;;31.33;16.95;;;;;;;-0.37;54.69;101079.00;5073414;28;20044;-72
2022/12/13 05:12:35;;;;;;;34.33;19.10;;;;;;;-0.40;54.90;101076.44;5073433;28;20048;-72
2022/12/13 05:15:02;;;;;;;34.50;18.17;;;;;;;-0.44;54.94;101077.41;5090721;28;20048;-71
2022/12/13 05:17:29;;;;;;;37.53;20.27;;;;;;;-0.47;54.52;101076.63;5093315;28;20457;-72
2022/12/13 05:19:55;;;;;;;35.05;18.27;;;;;;;-0.51;54.76;101072.31;5093507;28;20089;-71
2022/12/13 05:22:22;;;;;;;36.22;19.27;;;;;;;-0.54;54.71;101067.97;5093159;28;20048;-72
2022/12/13 05:24:49;;;;;;;31.42;17.95;;;;;;;-0.56;54.74;101077.69;5076825;28;20032;-71
2022/12/13 05:27:15;;;;;;;34.38;18.92;;;;;;;-0.60;54.77;101061.97;5073521;28;20079;-72
2022/12/13 05:29:54;;;;;;;32.42;18.00;;;;;;;-0.63;54.92;101060.25;5073494;28;20040;-71
2022/12/13 05:32:37;;;;;;;29.67;16.70;;;;;;;-0.66;54.79;101062.97;5077716;28;20127;-71
2022/12/13 05:35:14;;;;;;;35.42;18.65;;;;;;;-0.68;54.79;101065.63;5088699;28;20047;-72
2022/12/13 05:37:53;;;;;;;32.67;17.48;;;;;;;-0.69;54.71;101057.75;5072991;28;20122;-71
2022/12/13 05:40:29;;;;;;;35.03;18.15;;;;;;;-0.72;54.88;101058.69;5073232;28;20040;-72
2022/12/13 05:42:56;;;;;;;32.85;17.40;;;;;;;-0.73;54.91;101054.31;5074271;28;20102;-71
2022/12/13 05:45:28;;;;;;;32.40;17.60;;;;;;;-0.72;54.94;101057.81;5093145;28;20441;-71
2022/12/13 05:47:54;;;;;;;33.65;19.25;;;;;;;-0.74;54.87;101041.16;5093231;28;20040;-72
2022/12/13 05:50:21;;;;;;;30.50;18.02;;;;;;;-0.75;54.79;101050.81;5093097;28;20485;-72
2022/12/13 05:52:48;;;;;;;36.72;17.95;;;;;;;-0.74;54.87;101044.66;5092191;28;20093;-71
2022/12/13 05:55:15;;;;;;;34.38;18.55;;;;;;;-0.75;55.03;101050.81;5092947;28;20055;-72
2022/12/13 05:57:42;;;;;;;30.67;17.80;;;;;;;-0.76;54.72;101035.03;5093079;28;20040;-73
2022/12/13 06:00:17;;;;;;;32.60;17.45;;;;;;;-0.77;55.08;101036.78;5092885;28;20494;-72
2022/12/13 06:02:57;;;;;;;37.08;17.30;;;;;;;-0.76;54.66;101043.81;5091882;28;20086;-71
2022/12/13 06:05:27;;;;;;;33.03;18.58;;;;;;;-0.77;54.97;101036.78;5092749;28;20044;-71
2022/12/13 06:07:54;;;;;;;32.15;18.20;;;;;;;-0.76;55.11;101042.94;5092925;28;20440;-71
2022/12/13 06:10:23;;;;;;;30.90;18.17;;;;;;;-0.76;54.99;101038.53;5094956;28;20048;-72
2022/12/13 06:12:59;;;;;;;31.42;18.17;;;;;;;-0.73;55.14;101040.25;5094952;28;20486;-71
2022/12/13 06:15:29;;;;;;;31.80;18.55;;;;;;;-0.72;54.93;101037.59;5096426;28;20048;-71
2022/12/13 06:18:00;;;;;;;34.05;18.33;;;;;;;-0.69;55.07;101042.81;5096449;28;20048;-71
2022/12/13 06:20:30;;;;;;;33.15;18.73;;;;;;;-0.65;55.13;101035.69;5096336;28;20508;-72
2022/12/13 06:22:57;;;;;;;32.20;18.15;;;;;;;-0.62;55.09;101042.66;5083572;28;20044;-71
2022/12/13 06:25:24;;;;;;;33.08;18.33;;;;;;;-0.60;55.16;101038.22;5075823;28;20474;-72
2022/12/13 06:28:00;;;;;;;38.53;19.50;;;;;;;-0.57;54.99;101046.94;5076152;28;20050;-72
2022/12/13 06:30:28;;;;;;;33.15;18.70;;;;;;;-0.56;55.17;101040.75;5076006;28;20128;-71
2022/12/13 06:32:55;;;;;;;35.55;19.65;;;;;;;-0.54;55.04;101043.34;5076106;28;20086;-71
2022/12/13 06:35:22;;;;;;;33.58;18.05;;;;;;;-0.54;55.12;101051.28;5076005;28;20055;-71
2022/12/13 06:37:58;;;;;;;34.22;19.20;;;;;;;-0.51;55.20;101053.84;5075829;28;20032;-72
2022/12/13 06:40:30;;;;;;;31.75;18.00;;;;;;;-0.47;55.01;101044.97;5075865;28;20060;-71
2022/12/13 06:42:56;;;;;;;31.33;19.08;;;;;;;-0.45;55.19;101048.44;5083229;28;20048;-71
2022/12/13 06:45:24;;;;;;;32.45;18.50;;;;;;;-0.42;55.08;101048.34;5075481;28;20551;-72
2022/12/13 06:47:50;;;;;;;29.15;17.75;;;;;;;-0.41;55.14;101056.25;5076079;28;20055;-71
2022/12/13 06:50:17;;;;;;;31.40;19.55;;;;;;;-0.36;55.14;101050.84;5075432;28;20090;-72
2022/12/13 06:52:45;;;;;;;34.58;19.48;;;;;;;-0.35;55.03;101055.22;5087183;28;20040;-71
2022/12/13 06:55:12;;;;;;;31.80;18.17;;;;;;;-0.32;55.13;101055.16;5095713;28;20122;-71
2022/12/13 06:57:39;;;;;;;31.48;18.45;;;;;;;-0.30;55.11;101053.34;5094387;28;20094;-72
2022/12/13 07:00:09;;;;;;;33.97;19.45;;;;;;;-0.27;54.93;101053.28;5095552;28;20039;-72
2022/12/13 07:02:36;;;;;;;34.20;19.67;;;;;;;-0.25;55.23;101046.19;5094273;28;20559;-72
2022/12/13 07:05:04;;;;;;;37.03;20.02;;;;;;;-0.22;55.01;101051.41;5094103;28;20075;-72
2022/12/13 07:07:31;;;;;;;34.47;19.08;;;;;;;-0.21;54.77;101047.00;5095584;28;20082;-73
2022/12/13 07:09:57;;;;;;;34.78;20.55;;;;;;;-0.21;54.91;101050.50;5094368;28;20062;-73
2022/12/13 07:12:24;;;;;;;32.47;18.80;;;;;;;-0.19;54.89;101047.81;5094256;28;20113;-72
2022/12/13 07:14:51;;;;;;;35.75;19.92;;;;;;;-0.19;54.95;101053.09;5095409;28;20043;-72
2022/12/13 07:17:18;;;;;;;38.13;20.85;;;;;;;-0.19;54.98;101055.75;5093875;28;20044;-73
2022/12/13 07:19:59;;;;;;;40.70;21.33;;;;;;;-0.21;55.03;101053.13;5095617;28;20549;-72
2022/12/13 07:22:26;;;;;;;37.30;19.95;;;;;;;-0.23;55.10;101054.06;5093883;28;20042;-74
2022/12/13 07:24:53;;;;;;;37.63;20.70;;;;;;;-0.27;54.85;101058.56;5095073;28;20036;-72
2022/12/13 07:27:19;;;;;;;36.03;20.13;;;;;;;-0.28;55.05;101053.31;5095216;28;20097;-73
2022/12/13 07:29:46;;;;;;;36.83;21.50;;;;;;;-0.28;55.05;101051.56;5095006;28;20058;-72
2022/12/13 07:32:13;;;;;;;37.88;20.95;;;;;;;-0.28;55.11;101055.97;5093917;28;20043;-72
2022/12/13 07:34:39;;;;;;;38.75;20.50;;;;;;;-0.28;54.95;101056.81;5095158;28;20036;-71
2022/12/13 07:37:08;;;;;;;39.80;20.90;;;;;;;-0.26;55.16;101056.78;5094731;28;20044;-72
2022/12/13 07:39:54;;;;;;;40.13;21.05;;;;;;;-0.24;55.23;101058.50;5095167;28;20512;-72
2022/12/13 07:42:29;;;;;;;33.20;19.38;;;;;;;-0.24;54.96;101062.91;5093717;28;20058;-73
2022/12/13 07:44:55;;;;;;;35.78;20.52;;;;;;;-0.27;55.12;101061.19;5094627;28;20036;-72
2022/12/13 07:47:22;;;;;;;39.20;21.38;;;;;;;-0.30;55.07;101063.91;5094526;28;20044;-72
2022/12/13 07:49:49;;;;;;;40.97;21.55;;;;;;;-0.32;55.25;101060.44;5093839;28;20040;-70
2022/12/13 07:52:15;;;;;;;37.03;21.23;;;;;;;-0.32;54.91;101068.34;5093220;28;20040;-69
2022/12/13 07:54:42;;;;;;;36.00;20.02;;;;;;;-0.30;55.04;101069.19;5094523;28;20085;-71
2022/12/13 07:57:09;;;;;;;39.70;21.25;;;;;;;-0.29;55.12;101065.66;5094401;28;20058;-70
2022/12/13 07:59:35;;;;;;;39.55;22.10;;;;;;;-0.26;54.95;101067.34;5094292;28;20160;-70
2022/12/13 08:02:02;;;;;;;39.38;21.58;;;;;;;-0.24;55.23;101069.03;5093105;28;20036;-70
2022/12/13 08:04:28;;;;;;;39.20;21.88;;;;;;;-0.22;55.01;101069.88;5092643;28;20050;-70
2022/12/13 08:07:07;;;;;;;40.92;21.35;;;;;;;-0.20;55.11;101081.28;5076312;28;20052;-70
2022/12/13 08:09:34;;;;;;;37.58;21.27;;;;;;;-0.16;54.99;101082.94;5073861;28;20391;-69
2022/12/13 08:12:01;;;;;;;40.22;22.33;;;;;;;-0.10;55.23;101072.22;5080221;28;20082;-70
2022/12/13 08:14:28;;;;;;;41.05;21.48;;;;;;;-0.02;55.05;101072.91;5094260;28;20093;-69
2022/12/13 08:16:54;;;;;;;44.42;23.48;;;;;;;0.08;55.19;101078.00;5094051;28;20048;-70
2022/12/13 08:19:21;;;;;;;40.83;21.63;;;;;;;0.20;55.36;101072.41;5094166;28;20090;-70
2022/12/13 08:21:51;;;;;;;43.17;22.88;;;;;;;0.28;55.45;101071.31;5091725;28;20085;-70
2022/12/13 08:24:22;;;;;;;38.83;22.33;;;;;;;0.42;55.21;101070.97;5094384;28;20044;-70
2022/12/13 08:26:49;;;;;;;40.30;21.48;;;;;;;0.52;55.46;101069.81;5093347;28;20515;-70
2022/12/13 08:29:15;;;;;;;42.10;22.48;;;;;;;0.61;55.35;101066.94;5093859;28;20036;-69
2022/12/13 08:32:00;;;;;;;39.33;22.02;;;;;;;0.74;55.34;101061.31;5092099;28;20032;-70
2022/12/13 08:34:28;;;;;;;37.92;22.27;;;;;;;0.83;55.52;101061.97;5093937;28;20032;-70
2022/12/13 08:36:54;;;;;;;36.78;21.50;;;;;;;0.92;55.43;101060.84;5093387;28;20048;-71
2022/12/13 08:39:27;;;;;;;39.92;23.02;;;;;;;0.99;55.34;101062.41;5093661;28;20070;-70
2022/12/13 08:41:54;;;;;;;37.03;22.15;;;;;;;1.06;55.26;101065.72;5086831;28;20040;-70
2022/12/13 08:44:21;;;;;;;41.47;22.70;;;;;;;1.14;55.27;101076.97;5084486;28;20048;-70
2022/12/13 08:46:47;;;;;;;40.97;22.70;;;;;;;1.17;55.45;101072.44;5093436;28;20070;-70
2022/12/13 08:49:14;;;;;;;35.38;20.83;;;;;;;1.21;55.47;101078.53;5092808;28;20115;-70
2022/12/13 08:51:41;;;;;;;45.65;23.80;;;;;;;1.23;55.36;101085.50;5093476;28;20036;-70
2022/12/13 08:54:08;;;;;;;38.03;22.73;;;;;;;1.25;55.32;101083.69;5093792;28;20429;-70
2022/12/13 08:56:36;;;;;;;41.65;23.02;;;;;;;1.27;55.30;101081.84;5093537;28;20068;-70
2022/12/13 08:59:03;;;;;;;38.28;22.73;;;;;;;1.29;55.07;101081.81;5092563;28;20064;-70
2022/12/13 09:01:30;;;;;;;37.67;22.30;;;;;;;1.31;55.24;101089.69;5093282;28;20547;-70
2022/12/13 09:03:57;;;;;;;39.70;22.80;;;;;;;1.32;55.05;101086.16;5092262;28;20097;-70
2022/12/13 09:06:23;;;;;;;40.95;24.05;;;;;;;1.33;55.13;101091.38;5081561;28;20616;-70
2022/12/13 09:08:53;;;;;;;39.03;24.08;;;;;;;1.35;55.24;101086.91;5073348;28;20036;-70
2022/12/13 09:11:20;;;;;;;37.00;23.92;;;;;;;1.38;55.23;101093.91;5073186;28;20045;-69
2022/12/13 09:14:03;;;;;;;41.20;22.42;;;;;;;1.40;55.21;101089.44;5073144;28;20076;-70
2022/12/13 09:16:30;;;;;;;39.75;23.23;;;;;;;1.39;55.06;101093.00;5092152;28;20039;-70
2022/12/13 09:19:04;;;;;;;40.72;23.50;;;;;;;1.37;55.15;101086.88;5093525;28;20074;-70
2022/12/13 09:21:50;;;;;;;39.20;22.98;;;;;;;1.37;55.15;101093.03;5093102;28;20097;-69
2022/12/13 09:24:17;;;;;;;41.03;23.30;;;;;;;1.35;54.99;101089.56;5092274;28;20043;-69
2022/12/13 09:26:50;;;;;;;39.13;23.83;;;;;;;1.36;55.14;101093.09;5073401;28;20044;-70
2022/12/13 09:29:23;;;;;;;44.25;24.23;;;;;;;1.35;55.04;101094.84;5073268;28;20048;-69
2022/12/13 09:31:49;;;;;;;38.17;23.27;;;;;;;1.33;55.25;101099.31;5073049;28;20041;-71
2022/12/13 09:34:19;;;;;;;42.25;23.05;;;;;;;1.31;55.13;101098.50;5072822;28;20048;-70
2022/12/13 09:36:45;;;;;;;35.75;22.63;;;;;;;1.31;55.03;101101.16;5092651;28;20138;-70
2022/12/13 09:39:12;;;;;;;42.22;23.90;;;;;;;1.31;55.16;101095.00;5093171;28;20102;-69
2022/12/13 09:42:08;;;;;;;37.90;23.42;;;;;;;1.32;55.16;101088.78;5093413;28;20413;-70
2022/12/13 09:44:41;;;;;;;42.22;23.73;;;;;;;1.33;55.17;101098.47;5080798;28;20060;-69
2022/12/13 09:47:40;;;;;;;44.50;24.02;;;;;;;1.33;55.32;101095.81;5076951;28;20059;-69
2022/12/13 09:50:23;;;;;;;40.33;23.35;;;;;;;1.35;55.10;101096.63;5076772;28;20041;-69
2022/12/13 09:52:51;;;;;;;41.05;23.63;;;;;;;1.38;55.35;101099.19;5076690;28;20119;-69
2022/12/13 09:55:36;;;;;;;42.07;23.53;;;;;;;1.40;55.38;101085.00;5085002;28;20426;-69
2022/12/13 09:58:10;;;;;;;44.00;23.77;;;;;;;1.43;55.49;101082.28;5096314;28;20309;-69
2022/12/13 10:00:37;;;;;;;39.83;23.63;;;;;;;1.49;55.63;101083.91;5097123;28;20085;-70
2022/12/13 10:03:04;;;;;;;41.35;23.55;;;;;;;1.51;55.69;101075.00;5096666;28;20044;-69
2022/12/13 10:05:34;;;;;;;41.55;24.75;;;;;;;1.55;55.66;101078.41;5092515;28;20036;-70
2022/12/13 10:08:12;;;;;;;43.03;24.58;;;;;;;1.62;55.71;101076.44;5096451;28;20563;-68
2022/12/13 10:10:38;;;;;;;43.47;24.05;;;;;;;1.67;55.70;101062.16;5096124;28;20040;-69
2022/12/13 10:13:14;;;;;;;41.63;25.15;;;;;;;1.74;55.86;101063.69;5086784;28;20491;-69
2022/12/13 10:15:42;;;;;;;;;;;;;;;1.78;55.93;101051.22;5075376;28;20051;-70
2022/12/13 10:18:15;;;;;;;40.75;24.10;;;;;;;1.88;55.68;101056.19;5074933;28;19974;-70
2022/12/13 10:20:42;;;;;;;41.13;24.13;;;;;;;1.95;55.91;101053.34;5085701;28;20551;-69
2022/12/13 10:23:10;;;;;;;40.00;24.60;;;;;;;2.04;56.00;101051.25;5095797;28;20444;-69
2022/12/13 10:25:57;;;;;;;40.53;24.95;;;;;;;2.16;56.03;101042.03;5096253;28;20052;-69
2022/12/13 10:28:32;;;;;;;39.60;24.83;;;;;;;2.28;56.01;101043.44;5095083;28;20044;-68
2022/12/13 10:31:00;;;;;;;42.72;25.42;;;;;;;2.38;56.11;101036.91;5093656;28;20052;-69
2022/12/13 10:33:35;;;;;;;43.58;25.52;;;;;;;2.45;56.19;101039.28;5094851;28;20467;-69
2022/12/13 10:36:05;;;;;;;40.28;24.10;;;;;;;2.49;56.17;101035.63;5096365;28;20097;-69
2022/12/13 10:38:41;;;;;;;46.15;25.80;;;;;;;2.54;56.12;101022.19;5096670;28;20040;-68
2022/12/13 10:41:27;;;;;;;40.38;24.40;;;;;;;2.59;56.07;101022.03;5085868;28;20106;-69
2022/12/13 10:44:17;;;;;;;44.10;24.33;;;;;;;2.66;56.16;101010.28;5075668;28;20048;-69
2022/12/13 10:47:00;;;;;;;40.97;23.85;;;;;;;2.75;56.26;101007.31;5076758;28;20052;-69
2022/12/13 10:49:46;;;;;;;39.47;25.05;;;;;;;2.85;56.08;101000.75;5079931;28;20036;-69
2022/12/13 10:52:27;;;;;;;42.65;25.42;;;;;;;3.00;56.26;101007.31;5088279;28;20036;-69
2022/12/13 10:55:03;;;;;;;41.63;24.58;;;;;;;3.14;56.20;101013.81;5075291;28;20040;-69
2022/12/13 10:57:55;;;;;;;40.40;24.27;;;;;;;3.29;56.44;101004.41;5075922;28;20513;-69
2022/12/13 11:00:34;;;;;;;42.03;25.27;;;;;;;3.43;56.18;101006.53;5075596;28;20068;-69
2022/12/13 11:03:01;;;;;;;41.47;25.00;;;;;;;3.53;56.18;101002.59;5075194;28;20078;-69
2022/12/13 11:05:33;;;;;;;36.78;23.92;;;;;;;3.63;56.23;100989.81;5075235;28;20036;-68
2022/12/13 11:08:22;;;;;;;38.83;23.52;;;;;;;3.70;56.00;100993.94;5087519;28;20048;-69
2022/12/13 11:11:00;;;;;;;36.67;23.13;;;;;;;3.75;55.87;100989.34;5095728;28;20123;-69
2022/12/13 11:13:32;;;;;;;40.28;24.70;;;;;;;3.78;55.70;100991.88;5095396;28;20054;-69
2022/12/13 11:16:00;;;;;;;36.00;23.35;;;;;;;3.80;55.76;100985.56;5075982;28;20071;-68
2022/12/13 11:18:34;;;;;;;36.03;22.60;;;;;;;3.82;55.54;100981.06;5093982;28;20051;-70
2022/12/13 11:21:04;;;;;;;35.22;23.13;;;;;;;3.88;55.53;100984.38;5093983;28;20547;-69
2022/12/13 11:23:32;;;;;;;34.08;23.05;;;;;;;3.93;55.71;100982.41;5093874;28;20421;-70
2022/12/13 11:26:05;;;;;;;36.30;22.50;;;;;;;3.95;55.59;100977.91;5092760;28;20454;-69
2022/12/13 11:29:07;;;;;;;39.10;23.30;;;;;;;4.01;55.49;100977.63;5095334;28;20123;-69
2022/12/13 11:31:47;;;;;;;34.25;22.45;;;;;;;4.08;55.43;100971.13;5095024;28;20052;-69
2022/12/13 11:34:27;;;;;;;36.03;22.33;;;;;;;4.10;55.41;100977.25;5095262;28;20533;-69
2022/12/13 11:37:22;;;;;;;40.90;22.88;;;;;;;4.12;55.34;100970.06;5093186;28;20048;-69